Time;durP1;ratioP1;P1;durP2;ratioP2;P2;SDS_P1;SDS_P2;PMS_P1;PMS_P2;Temp;Humidity;BMP_temperature;BMP_pressure;BME280_temperature;BME280_humidity;BME280_pressure;Samples;Min_cycle;Max_cycle;Signal;HPM_P1;HPM_P2
2021/05/28 00:00:56;;;;;;;5.05;3.10;;;10.10;99.90;;;;;;5051138;28;20311;-92
2021/05/28 00:03:46;;;;;;;3.42;3.08;;;10.10;99.90;;;;;;5056577;28;20068;-91
2021/05/28 00:06:24;;;;;;;5.38;3.05;;;10.10;99.90;;;;;;5072834;28;20052;-92
2021/05/28 00:12:07;;;;;;;;;;;;;;;;;;;;;
2021/05/28 00:14:43;;;;;;;5.07;3.00;;;9.80;99.90;;;;;;5070697;28;20048;-91
2021/05/28 00:17:10;;;;;;;3.95;3.40;;;9.70;99.90;;;;;;5070207;28;20044;-93
2021/05/28 00:19:39;;;;;;;3.40;3.10;;;9.60;99.90;;;;;;5053093;28;20045;-93
2021/05/28 00:22:06;;;;;;;3.83;3.47;;;9.50;99.90;;;;;;5054149;28;20036;-91
2021/05/28 00:24:33;;;;;;;5.82;3.20;;;9.40;99.90;;;;;;5068904;28;20045;-91
2021/05/28 00:27:04;;;;;;;4.45;3.53;;;9.40;99.90;;;;;;5065242;28;20060;-92
2021/05/28 00:29:31;;;;;;;5.63;3.80;;;9.40;99.90;;;;;;5045649;28;20048;-92
2021/05/28 00:32:02;;;;;;;6.22;4.57;;;9.40;99.90;;;;;;5066250;28;20130;-92
2021/05/28 00:34:36;;;;;;;6.15;5.30;;;9.40;99.90;;;;;;5070381;28;20045;-94
2021/05/28 00:37:06;;;;;;;9.50;6.72;;;9.40;99.90;;;;;;5073654;28;20129;-91
2021/05/28 00:39:44;;;;;;;15.63;9.10;;;9.40;99.90;;;;;;5071887;28;20423;-90
2021/05/28 00:42:11;;;;;;;10.77;9.10;;;9.50;99.90;;;;;;5043902;28;20458;-91
2021/05/28 00:44:40;;;;;;;11.73;8.80;;;9.40;99.90;;;;;;5030415;28;20479;-93
2021/05/28 00:47:18;;;;;;;16.83;10.65;;;9.40;99.90;;;;;;5071523;28;20044;-92
2021/05/28 00:49:45;;;;;;;13.30;10.43;;;9.30;99.90;;;;;;5047958;28;20055;-90
2021/05/28 00:52:13;;;;;;;15.90;11.20;;;9.20;99.90;;;;;;5051267;28;20048;-92
2021/05/28 00:54:45;;;;;;;13.27;11.43;;;9.20;99.90;;;;;;5069633;28;20300;-92
2021/05/28 00:57:27;;;;;;;;;;;;;;;;;;;;;
2021/05/28 00:59:57;;;;;;;19.65;14.52;;;9.00;99.90;;;;;;5073654;28;20086;-93
2021/05/28 01:02:25;;;;;;;21.70;14.70;;;8.90;99.90;;;;;;5086991;28;20070;-93
2021/05/28 01:04:58;;;;;;;22.55;17.25;;;8.90;99.90;;;;;;5058290;28;20048;-93
2021/05/28 01:07:31;;;;;;;23.95;18.00;;;8.80;99.90;;;;;;5089692;28;20044;-91
2021/05/28 01:10:17;;;;;;;22.90;17.75;;;8.70;99.90;;;;;;5078670;28;20418;-93
2021/05/28 01:12:44;;;;;;;25.50;17.90;;;8.60;99.90;;;;;;5066049;28;20688;-93
2021/05/28 01:15:13;;;;;;;28.05;20.30;;;8.60;99.90;;;;;;5071413;28;20349;-93
2021/05/28 01:17:40;;;;;;;30.42;21.25;;;8.60;99.90;;;;;;5050309;28;20118;-92
2021/05/28 01:20:10;;;;;;;30.15;20.85;;;8.60;99.90;;;;;;5068334;28;20045;-93
2021/05/28 01:22:38;;;;;;;28.30;20.38;;;8.60;99.90;;;;;;5063201;28;20473;-90
2021/05/28 01:25:09;;;;;;;30.15;20.35;;;8.70;99.90;;;;;;5069208;28;20430;-90
2021/05/28 01:27:36;;;;;;;24.38;18.25;;;8.70;99.90;;;;;;5067774;28;20045;-93
2021/05/28 01:30:06;;;;;;;23.40;16.95;;;8.80;99.90;;;;;;5068425;28;20044;-91
2021/05/28 01:32:33;;;;;;;22.25;17.63;;;8.80;99.90;;;;;;5050022;28;20052;-93
2021/05/28 01:34:59;;;;;;;23.27;15.50;;;8.80;99.90;;;;;;5062218;28;20473;-93
2021/05/28 01:37:28;;;;;;;19.58;14.65;;;8.80;99.90;;;;;;5039413;28;20041;-95
2021/05/28 01:39:55;;;;;;;16.80;12.77;;;8.80;99.90;;;;;;5051812;28;20196;-93
2021/05/28 01:42:22;;;;;;;15.95;12.27;;;8.80;99.90;;;;;;5036220;28;20239;-93
2021/05/28 01:44:49;;;;;;;14.10;10.82;;;8.80;99.90;;;;;;5068334;28;20135;-93
2021/05/28 01:47:16;;;;;;;13.57;10.20;;;8.80;99.90;;;;;;5069303;28;20175;-94
2021/05/28 01:49:47;;;;;;;13.82;9.13;;;8.90;99.90;;;;;;5070722;28;20457;-92
2021/05/28 01:52:14;;;;;;;9.70;7.75;;;8.90;99.90;;;;;;5069012;28;20048;-93
2021/05/28 01:54:41;;;;;;;9.10;7.20;;;8.90;99.90;;;;;;5060619;28;20052;-92
2021/05/28 01:57:10;;;;;;;8.85;6.22;;;9.00;99.90;;;;;;5052216;28;20128;-92
2021/05/28 01:59:38;;;;;;;11.77;6.45;;;9.00;99.90;;;;;;5056640;28;20049;-90
2021/05/28 02:02:48;;;;;;;9.45;6.25;;;9.00;99.90;;;;;;5036990;28;20053;-93
2021/05/28 02:05:36;;;;;;;8.07;5.30;;;9.10;99.90;;;;;;5065983;28;20068;-91
2021/05/28 02:08:04;;;;;;;7.90;5.63;;;9.10;99.90;;;;;;5063651;28;20056;-93
2021/05/28 02:10:32;;;;;;;7.00;5.35;;;9.10;99.90;;;;;;5072602;28;20518;-93
2021/05/28 02:12:59;;;;;;;9.68;5.47;;;9.10;99.90;;;;;;5063563;28;20052;-92
2021/05/28 02:15:27;;;;;;;10.15;5.07;;;9.10;99.90;;;;;;5066955;28;20044;-92
2021/05/28 02:17:55;;;;;;;6.70;5.22;;;9.10;99.90;;;;;;5071916;28;20531;-92
2021/05/28 02:20:23;;;;;;;5.47;4.55;;;9.10;99.90;;;;;;5069049;28;20124;-94
2021/05/28 02:22:50;;;;;;;9.15;4.97;;;9.10;99.90;;;;;;5065262;28;20045;-93
2021/05/28 02:25:21;;;;;;;9.50;5.13;;;9.10;99.90;;;;;;5064421;28;20050;-92
2021/05/28 02:27:53;;;;;;;5.68;5.03;;;9.00;99.90;;;;;;5067270;28;20053;-92
2021/05/28 02:30:20;;;;;;;7.57;5.57;;;9.00;99.90;;;;;;5053311;28;20373;-89
2021/05/28 02:32:58;;;;;;;6.38;4.88;;;8.90;99.90;;;;;;5074678;28;20050;-93
2021/05/28 02:35:35;;;;;;;;;;;;;;;;;;;;;
2021/05/28 02:38:02;;;;;;;6.68;4.43;;;8.80;99.90;;;;;;5056151;28;20055;-93
2021/05/28 02:40:30;;;;;;;5.55;4.00;;;8.80;99.90;;;;;;5069808;28;20465;-92
2021/05/28 02:42:57;;;;;;;6.18;4.40;;;8.80;99.90;;;;;;5074614;28;20070;-93
2021/05/28 02:45:24;;;;;;;8.68;4.50;;;8.80;99.90;;;;;;5073893;28;20581;-91
2021/05/28 02:47:51;;;;;;;9.10;5.03;;;8.70;99.90;;;;;;5049699;28;20097;-92
2021/05/28 02:50:20;;;;;;;5.95;4.22;;;8.70;99.90;;;;;;5073956;28;20066;-92
2021/05/28 02:52:49;;;;;;;5.63;4.55;;;8.60;99.90;;;;;;5056577;28;20048;-91
2021/05/28 02:55:17;;;;;;;7.93;4.80;;;8.60;99.90;;;;;;5074143;28;20060;-92
2021/05/28 02:57:48;;;;;;;8.48;5.10;;;8.50;99.90;;;;;;5068266;28;20057;-92
2021/05/28 03:00:20;;;;;;;7.40;5.10;;;8.40;99.90;;;;;;5074111;28;20380;-92
2021/05/28 03:02:49;;;;;;;8.77;5.45;;;8.30;99.90;;;;;;5075709;28;20059;-92
2021/05/28 03:05:22;;;;;;;7.05;5.15;;;8.20;99.90;;;;;;5074970;28;20052;-92
2021/05/28 03:08:04;;;;;;;6.75;4.97;;;8.20;99.90;;;;;;5062061;28;20036;-94
2021/05/28 03:10:33;;;;;;;10.27;5.53;;;8.20;99.90;;;;;;5065906;28;20438;-92
2021/05/28 03:13:01;;;;;;;14.27;5.75;;;8.20;99.90;;;;;;5075175;28;20127;-92
2021/05/28 03:15:28;;;;;;;8.93;5.38;;;8.30;99.90;;;;;;5075536;28;20055;-92
2021/05/28 03:17:57;;;;;;;8.73;5.60;;;8.40;99.90;;;;;;5072786;28;20044;-93
2021/05/28 03:20:34;;;;;;;8.82;5.97;;;8.40;99.90;;;;;;5071747;28;20694;-93
2021/05/28 03:23:06;;;;;;;8.10;5.82;;;8.50;99.90;;;;;;5056112;28;20040;-91
2021/05/28 03:25:38;;;;;;;9.00;5.80;;;8.60;99.90;;;;;;5078184;28;20091;-93
2021/05/28 03:28:05;;;;;;;8.88;6.30;;;8.60;99.90;;;;;;5074769;28;20091;-93
2021/05/28 03:30:32;;;;;;;7.53;5.97;;;8.50;99.90;;;;;;5053725;28;20190;-92
2021/05/28 03:33:03;;;;;;;9.27;6.13;;;8.40;99.90;;;;;;5068667;28;20064;-92
2021/05/28 03:35:32;;;;;;;8.57;6.18;;;8.20;99.90;;;;;;5071476;28;20072;-93
2021/05/28 03:38:06;;;;;;;12.52;7.13;;;8.10;99.90;;;;;;5073165;28;20053;-92
2021/05/28 03:40:43;;;;;;;8.73;6.70;;;7.90;99.90;;;;;;5058666;28;20109;-92
2021/05/28 03:43:15;;;;;;;9.57;7.68;;;7.70;99.90;;;;;;5073017;28;20102;-93
2021/05/28 03:45:47;;;;;;;11.15;7.97;;;7.60;99.90;;;;;;5048996;28;20050;-93
2021/05/28 03:48:27;;;;;;;;;;;;;;;;;;;;;
2021/05/28 03:51:17;;;;;;;10.30;7.00;;;7.40;99.90;;;;;;5066469;28;20120;-92
2021/05/28 03:53:46;;;;;;;12.43;8.25;;;7.30;99.90;;;;;;5069984;28;20682;-92
2021/05/28 03:56:13;;;;;;;13.88;8.13;;;7.20;99.90;;;;;;5072347;28;20048;-92
2021/05/28 03:58:43;;;;;;;26.73;13.98;;;7.20;99.90;;;;;;5075111;28;20311;-92
2021/05/28 04:01:10;;;;;;;25.13;12.60;;;7.10;99.90;;;;;;5084156;28;20045;-93
2021/05/28 04:03:37;;;;;;;17.50;10.68;;;7.00;99.90;;;;;;5069494;28;20048;-93
2021/05/28 04:06:07;;;;;;;24.52;11.35;;;6.90;99.90;;;;;;5090299;28;20041;-93
2021/05/28 04:08:48;;;;;;;20.67;11.40;;;6.90;99.90;;;;;;5056169;28;20048;-92
2021/05/28 04:11:28;;;;;;;22.13;12.65;;;7.00;99.90;;;;;;5062705;28;20041;-93
2021/05/28 04:13:55;;;;;;;21.38;13.85;;;7.00;99.90;;;;;;5088496;28;20040;-92
2021/05/28 04:16:25;;;;;;;26.02;13.73;;;7.10;99.90;;;;;;5062277;28;20117;-92
2021/05/28 04:18:55;;;;;;;21.38;13.75;;;7.10;99.90;;;;;;5077177;28;20079;-92
2021/05/28 04:21:28;;;;;;;21.27;13.18;;;7.10;99.90;;;;;;5073255;28;20063;-92
2021/05/28 04:23:56;;;;;;;25.27;13.50;;;7.10;99.90;;;;;;5072147;28;20128;-93
2021/05/28 04:26:30;;;;;;;22.65;14.63;;;7.10;99.90;;;;;;5027988;28;20428;-91
2021/05/28 04:29:17;;;;;;;27.00;16.23;;;7.20;99.90;;;;;;4990041;28;20088;-92
2021/05/28 04:31:46;;;;;;;21.47;14.10;;;7.40;99.90;;;;;;4976026;28;20180;-92
2021/05/28 04:54:31;;;;;;;;;;;;;;;;;;;;;
2021/05/28 05:01:27;;;;;;;16.92;11.68;;;9.00;99.90;;;;;;4804376;29;20069;-89
2021/05/28 05:03:53;;;;;;;18.77;12.20;;;9.20;99.90;;;;;;4803089;29;20431;-89
2021/05/28 05:06:19;;;;;;;18.48;12.45;;;9.30;99.90;;;;;;4838707;29;20337;-88
2021/05/28 05:08:46;;;;;;;14.15;11.07;;;9.40;99.90;;;;;;4992359;28;20478;-86
2021/05/28 05:11:13;;;;;;;16.58;11.23;;;9.50;99.90;;;;;;5007525;28;20109;-89
2021/05/28 05:13:40;;;;;;;14.27;11.13;;;9.60;99.90;;;;;;4995327;28;20120;-87
2021/05/28 05:16:07;;;;;;;16.08;11.35;;;9.60;99.90;;;;;;5003400;28;20085;-89
2021/05/28 05:18:34;;;;;;;14.25;10.90;;;9.70;99.90;;;;;;5007406;28;20056;-88
2021/05/28 05:21:01;;;;;;;14.00;10.32;;;9.80;99.90;;;;;;5008750;28;20058;-88
2021/05/28 05:23:30;;;;;;;13.30;10.32;;;9.80;99.90;;;;;;5062943;28;20077;-89
2021/05/28 05:25:57;;;;;;;14.35;9.75;;;9.90;99.90;;;;;;5091214;28;20160;-88
2021/05/28 05:28:24;;;;;;;13.13;9.73;;;10.00;99.90;;;;;;5085337;28;20036;-89
2021/05/28 05:30:52;;;;;;;12.00;9.45;;;10.10;99.90;;;;;;5090059;28;20076;-90
2021/05/28 05:33:19;;;;;;;12.60;8.68;;;10.20;99.90;;;;;;5073967;28;20481;-88
2021/05/28 05:35:46;;;;;;;14.80;10.43;;;10.30;99.90;;;;;;5090699;28;20048;-89
2021/05/28 05:38:18;;;;;;;11.90;9.68;;;10.40;99.90;;;;;;5087569;28;20135;-87
2021/05/28 05:40:45;;;;;;;12.65;9.02;;;10.60;99.90;;;;;;5090162;28;20127;-88
2021/05/28 05:43:12;;;;;;;14.07;8.65;;;10.80;99.90;;;;;;5074169;28;20062;-88
2021/05/28 05:45:40;;;;;;;10.75;8.60;;;11.10;99.90;;;;;;5091918;28;20048;-92
2021/05/28 05:48:09;;;;;;;12.90;7.95;;;11.60;99.90;;;;;;5091144;28;20343;-91
2021/05/28 05:50:38;;;;;;;13.30;8.40;;;11.70;99.90;;;;;;5073202;28;20052;-91
2021/05/28 05:53:06;;;;;;;11.93;8.40;;;11.70;99.90;;;;;;5089164;28;20047;-90
2021/05/28 05:55:35;;;;;;;10.73;8.10;;;11.60;99.90;;;;;;5090462;28;20059;-92
2021/05/28 05:58:04;;;;;;;11.13;8.27;;;11.70;99.90;;;;;;5089716;28;20048;-91
2021/05/28 06:00:31;;;;;;;9.15;7.10;;;11.80;99.90;;;;;;5090772;28;20131;-90
2021/05/28 06:02:58;;;;;;;11.63;8.10;;;11.90;99.90;;;;;;5090604;28;20130;-90
2021/05/28 06:05:25;;;;;;;15.30;8.75;;;12.00;99.90;;;;;;5093412;28;20040;-90
2021/05/28 06:07:52;;;;;;;9.98;7.60;;;12.00;99.90;;;;;;5100992;28;20123;-90
2021/05/28 06:10:19;;;;;;;9.57;7.88;;;11.90;99.90;;;;;;5095074;28;20135;-89
2021/05/28 06:12:50;;;;;;;13.27;8.20;;;12.00;99.90;;;;;;5078546;28;20063;-91
2021/05/28 06:15:17;;;;;;;11.80;7.80;;;12.10;99.90;;;;;;5083067;28;20032;-90
2021/05/28 06:17:51;;;;;;;10.20;7.72;;;12.30;99.90;;;;;;5094391;28;20072;-91
2021/05/28 06:20:18;;;;;;;12.23;7.15;;;12.40;99.90;;;;;;5072656;28;20425;-89
2021/05/28 06:22:48;;;;;;;9.55;8.05;;;12.40;99.90;;;;;;5092922;28;20040;-89
2021/05/28 06:25:15;;;;;;;11.60;8.23;;;12.40;99.90;;;;;;5070004;28;20100;-90
2021/05/28 06:27:48;;;;;;;11.45;7.63;;;12.40;99.90;;;;;;5098950;28;20050;-92
2021/05/28 06:30:16;;;;;;;9.90;7.60;;;12.50;99.90;;;;;;5089012;28;20132;-90
2021/05/28 06:32:43;;;;;;;10.68;7.82;;;12.70;99.90;;;;;;5094467;28;20044;-89
2021/05/28 06:35:11;;;;;;;11.27;7.07;;;12.80;99.90;;;;;;5095220;28;20062;-89
2021/05/28 06:37:37;;;;;;;9.63;7.13;;;12.80;99.90;;;;;;5095804;28;20123;-91
2021/05/28 06:40:10;;;;;;;11.05;7.32;;;12.90;99.90;;;;;;5094430;28;20048;-90
2021/05/28 06:42:40;;;;;;;16.70;7.82;;;12.80;99.90;;;;;;5089043;28;20036;-90
2021/05/28 06:45:07;;;;;;;13.10;7.53;;;12.70;99.90;;;;;;5095128;28;20048;-91
2021/05/28 06:47:36;;;;;;;14.43;8.45;;;12.80;99.90;;;;;;5076656;28;20131;-90
2021/05/28 06:50:04;;;;;;;14.00;8.05;;;13.10;99.90;;;;;;5076862;28;20121;-90
2021/05/28 06:52:36;;;;;;;15.23;6.95;;;13.30;99.90;;;;;;5078389;28;20418;-91
2021/05/28 06:55:07;;;;;;;11.18;7.25;;;13.40;99.90;;;;;;5089547;28;20044;-90
2021/05/28 06:57:35;;;;;;;12.05;7.43;;;13.60;99.90;;;;;;5086414;28;20098;-90
2021/05/28 07:00:08;;;;;;;10.95;6.53;;;13.60;99.90;;;;;;5094838;28;20059;-91
2021/05/28 07:02:36;;;;;;;15.73;6.95;;;13.60;99.90;;;;;;5089139;28;20129;-90
2021/05/28 07:05:09;;;;;;;13.18;7.53;;;13.90;99.90;;;;;;5093755;28;20189;-89
2021/05/28 07:07:36;;;;;;;9.23;6.25;;;14.10;99.90;;;;;;5093989;28;20083;-89
2021/05/28 07:10:03;;;;;;;11.55;5.97;;;14.20;99.90;;;;;;5093991;28;20123;-90
2021/05/28 07:12:33;;;;;;;9.40;6.15;;;14.20;99.90;;;;;;5095149;28;20143;-91
2021/05/28 07:15:00;;;;;;;12.85;6.47;;;14.20;99.90;;;;;;5077443;28;20135;-90
2021/05/28 07:17:27;;;;;;;11.38;6.15;;;14.30;99.90;;;;;;5092233;28;20123;-91
2021/05/28 07:19:56;;;;;;;12.68;6.10;;;14.80;99.90;;;;;;5085345;28;20123;-91
2021/05/28 07:22:23;;;;;;;14.35;6.00;;;15.30;99.90;;;;;;5076684;28;20040;-90
2021/05/28 07:24:50;;;;;;;8.82;5.88;;;16.00;99.90;;;;;;5092962;28;20068;-91
2021/05/28 07:27:19;;;;;;;13.82;6.00;;;16.50;97.00;;;;;;5093328;28;20052;-90
2021/05/28 07:29:48;;;;;;;9.32;5.88;;;16.40;94.20;;;;;;5094026;28;20465;-90
2021/05/28 07:32:16;;;;;;;6.93;5.35;;;16.10;95.00;;;;;;5094072;28;20472;-90
2021/05/28 07:34:48;;;;;;;9.38;5.78;;;15.90;96.70;;;;;;5096692;28;20174;-91
2021/05/28 07:37:16;;;;;;;9.40;5.30;;;15.90;96.00;;;;;;5107307;28;20093;-90
2021/05/28 07:39:43;;;;;;;9.90;5.10;;;16.00;97.30;;;;;;5099735;28;20047;-90
2021/05/28 07:42:15;;;;;;;12.45;4.93;;;16.00;97.90;;;;;;5112715;28;20104;-90
2021/05/28 07:44:48;;;;;;;8.23;5.07;;;15.70;98.60;;;;;;5094105;28;20040;-90
2021/05/28 07:47:15;;;;;;;9.80;5.10;;;15.70;95.40;;;;;;5115205;28;20054;-89
2021/05/28 07:49:42;;;;;;;8.32;4.60;;;16.10;93.30;;;;;;5111316;28;20037;-90
2021/05/28 07:52:11;;;;;;;10.98;5.00;;;16.50;96.60;;;;;;5107490;28;20528;-91
2021/05/28 07:54:39;;;;;;;8.75;5.00;;;16.70;92.80;;;;;;5100433;28;20111;-90
2021/05/28 07:57:07;;;;;;;7.47;4.57;;;17.00;91.10;;;;;;5074511;28;20048;-91
2021/05/28 07:59:36;;;;;;;6.32;3.78;;;17.60;92.70;;;;;;5073311;28;20058;-90
2021/05/28 08:02:04;;;;;;;8.70;4.35;;;18.10;88.80;;;;;;5093362;28;20055;-90
2021/05/28 08:04:30;;;;;;;6.25;3.75;;;18.10;86.90;;;;;;5073347;28;20380;-91
2021/05/28 08:06:59;;;;;;;8.32;4.35;;;18.50;83.10;;;;;;5068446;28;20136;-90
2021/05/28 08:09:27;;;;;;;7.82;4.70;;;18.90;81.10;;;;;;5055338;28;20056;-91
2021/05/28 08:11:56;;;;;;;6.22;4.68;;;18.90;71.90;;;;;;5079395;28;20143;-90
2021/05/28 08:14:25;;;;;;;7.05;4.38;;;19.50;76.00;;;;;;5093295;28;20051;-91
2021/05/28 08:16:52;;;;;;;7.40;4.10;;;20.00;66.70;;;;;;5082621;28;20136;-91
2021/05/28 08:19:19;;;;;;;10.43;4.53;;;20.40;68.90;;;;;;5054544;28;20119;-90
2021/05/28 08:21:49;;;;;;;6.35;4.30;;;20.30;67.60;;;;;;5072953;28;20096;-91
2021/05/28 08:24:16;;;;;;;5.90;3.22;;;19.70;65.40;;;;;;5058045;28;20059;-91
2021/05/28 08:26:43;;;;;;;5.05;3.50;;;19.10;69.10;;;;;;5076889;28;20065;-89
2021/05/28 08:29:10;;;;;;;6.35;3.40;;;18.60;70.90;;;;;;5075256;28;20474;-90
2021/05/28 08:31:36;;;;;;;6.10;3.08;;;18.60;74.00;;;;;;5074405;28;20131;-90
2021/05/28 08:34:03;;;;;;;4.97;3.90;;;18.60;74.70;;;;;;5072104;28;20139;-89
2021/05/28 08:36:30;;;;;;;6.80;3.28;;;18.30;70.70;;;;;;5074161;28;20080;-89
2021/05/28 08:38:57;;;;;;;5.25;3.13;;;18.10;70.60;;;;;;5075501;28;20501;-90
2021/05/28 08:41:28;;;;;;;7.07;3.38;;;18.20;75.20;;;;;;5071326;28;20060;-89
2021/05/28 08:43:55;;;;;;;5.78;3.50;;;18.30;71.70;;;;;;5092848;28;20131;-90
2021/05/28 08:46:24;;;;;;;3.97;2.75;;;18.20;71.40;;;;;;5076523;28;20127;-88
2021/05/28 08:48:51;;;;;;;5.05;3.53;;;18.10;71.90;;;;;;5070212;28;20079;-89
2021/05/28 08:51:19;;;;;;;5.47;3.50;;;18.00;74.50;;;;;;5054912;28;20076;-90
2021/05/28 08:53:46;;;;;;;7.78;3.95;;;17.90;73.80;;;;;;5066083;28;20494;-89
2021/05/28 08:56:13;;;;;;;5.75;3.72;;;17.70;72.70;;;;;;5072456;28;20058;-90
2021/05/28 08:58:40;;;;;;;5.50;3.25;;;17.70;70.70;;;;;;5067552;28;20491;-87
2021/05/28 09:01:08;;;;;;;4.45;2.88;;;18.30;73.20;;;;;;5072604;28;20484;-90
2021/05/28 09:03:37;;;;;;;6.60;3.38;;;18.60;70.60;;;;;;5092417;28;20052;-90
2021/05/28 09:06:20;;;;;;;7.20;2.70;;;18.50;71.60;;;;;;5095049;28;20045;-89
2021/05/28 09:08:49;;;;;;;7.72;3.17;;;19.00;68.00;;;;;;5088345;28;20075;-90
2021/05/28 09:11:19;;;;;;;5.47;2.80;;;19.60;63.90;;;;;;5093574;28;20332;-90
2021/05/28 09:13:51;;;;;;;3.97;2.55;;;19.70;65.90;;;;;;5072839;28;20052;-91
2021/05/28 09:16:19;;;;;;;;;;;19.70;64.00;;;;;;5088665;28;20044;-88
2021/05/28 09:18:52;;;;;;;6.47;2.55;;;19.30;67.20;;;;;;5091652;28;19931;-89
2021/05/28 09:21:28;;;;;;;4.68;2.80;;;19.40;66.10;;;;;;5092147;28;20040;-90
2021/05/28 09:23:55;;;;;;;6.28;2.80;;;19.20;66.00;;;;;;5092405;28;20044;-91
2021/05/28 09:26:24;;;;;;;7.95;3.50;;;18.50;65.30;;;;;;5083921;28;20573;-89
2021/05/28 09:28:54;;;;;;;4.65;2.92;;;18.00;70.00;;;;;;5087346;28;20495;-91
2021/05/28 09:31:23;;;;;;;4.82;3.10;;;17.70;69.60;;;;;;5089859;28;20062;-90
2021/05/28 09:33:52;;;;;;;4.75;2.90;;;17.50;73.40;;;;;;5091505;28;20048;-88
2021/05/28 09:36:27;;;;;;;4.35;2.83;;;17.20;74.50;;;;;;5094211;28;20098;-88
2021/05/28 09:39:14;;;;;;;10.10;3.65;;;17.10;74.80;;;;;;5090567;28;20082;-90
2021/05/28 09:41:57;;;;;;;6.95;3.55;;;17.10;77.40;;;;;;5090926;28;20544;-89
2021/05/28 09:44:32;;;;;;;6.13;3.05;;;17.30;76.00;;;;;;5063904;28;20649;-89
2021/05/28 09:47:03;;;;;;;6.03;3.03;;;17.10;73.10;;;;;;5084716;28;20131;-91
2021/05/28 09:49:33;;;;;;;4.30;2.90;;;17.20;74.30;;;;;;5091761;28;20484;-91
2021/05/28 09:52:08;;;;;;;5.20;3.17;;;17.30;73.20;;;;;;5092450;28;20052;-92
2021/05/28 09:54:35;;;;;;;7.80;3.30;;;17.60;72.80;;;;;;5080555;28;20107;-90
2021/05/28 09:57:02;;;;;;;4.32;2.50;;;18.80;73.40;;;;;;5089942;28;20391;-91
2021/05/28 09:59:50;;;;;;;4.03;2.50;;;19.90;67.10;;;;;;5092898;28;20113;-90
2021/05/28 10:02:32;;;;;;;4.13;3.03;;;20.30;68.00;;;;;;5090618;28;20079;-89
2021/05/28 10:04:59;;;;;;;7.65;2.88;;;20.30;61.20;;;;;;5091960;28;20127;-89
2021/05/28 10:07:28;;;;;;;4.18;2.97;;;20.20;62.70;;;;;;5089936;28;20078;-90
2021/05/28 10:09:59;;;;;;;6.03;2.90;;;19.80;66.00;;;;;;5091353;28;20105;-91
2021/05/28 10:12:26;;;;;;;3.70;2.67;;;19.30;65.50;;;;;;5072720;28;20056;-89
2021/05/28 10:14:56;;;;;;;3.67;2.80;;;18.50;68.20;;;;;;5073986;28;20059;-90
2021/05/28 10:17:24;;;;;;;4.40;3.30;;;18.10;70.40;;;;;;5090919;28;20040;-88
2021/05/28 10:19:51;;;;;;;5.47;3.20;;;17.90;72.80;;;;;;5072677;28;20116;-89
2021/05/28 10:22:27;;;;;;;11.07;3.45;;;17.90;73.70;;;;;;5073053;28;20408;-91
2021/05/28 10:25:05;;;;;;;5.30;3.03;;;17.70;73.40;;;;;;5054905;28;20422;-91
2021/05/28 10:27:33;;;;;;;6.65;3.10;;;17.30;75.50;;;;;;5080902;28;20074;-89
2021/05/28 10:30:12;;;;;;;8.40;3.58;;;17.10;75.20;;;;;;5090586;28;20457;-89
2021/05/28 10:32:41;;;;;;;6.53;3.35;;;17.00;78.90;;;;;;5103824;28;20093;-92
2021/05/28 10:35:17;;;;;;;5.05;2.97;;;17.40;77.50;;;;;;5088192;28;20059;-90
2021/05/28 10:37:46;;;;;;;4.65;2.85;;;17.40;74.90;;;;;;5081683;28;20123;-90
2021/05/28 10:40:26;;;;;;;5.28;2.95;;;17.60;76.80;;;;;;5090981;28;20499;-89
2021/05/28 10:43:21;;;;;;;5.18;2.72;;;17.70;73.70;;;;;;5082972;28;20131;-90
2021/05/28 10:46:07;;;;;;;4.18;2.78;;;18.60;72.50;;;;;;5077395;28;20135;-90
2021/05/28 10:48:39;;;;;;;3.60;2.40;;;19.70;70.50;;;;;;5072805;28;20040;-90
2021/05/28 10:51:13;;;;;;;6.10;3.05;;;20.00;65.50;;;;;;5089936;28;20119;-91
2021/05/28 10:53:54;;;;;;;3.17;2.40;;;19.80;62.80;;;;;;5089843;28;20051;-90
2021/05/28 10:56:26;;;;;;;5.43;2.85;;;19.60;67.60;;;;;;5095215;28;20135;-90
2021/05/28 10:59:01;;;;;;;3.80;3.13;;;19.20;64.70;;;;;;5093949;28;20139;-89
2021/05/28 11:01:34;;;;;;;4.38;3.10;;;18.80;65.40;;;;;;5095580;28;20076;-91
2021/05/28 11:04:10;;;;;;;4.47;3.05;;;18.60;65.60;;;;;;5101179;28;20052;-90
2021/05/28 11:06:55;;;;;;;5.93;3.85;;;18.10;68.70;;;;;;5095741;28;20443;-88
2021/05/28 11:09:36;;;;;;;7.20;4.50;;;17.60;72.80;;;;;;5093385;28;20082;-91
2021/05/28 11:12:06;;;;;;;8.45;3.95;;;17.50;72.50;;;;;;5098680;28;20063;-88
2021/05/28 11:14:38;;;;;;;6.43;3.25;;;17.20;72.80;;;;;;5097098;28;20436;-89
2021/05/28 11:17:05;;;;;;;3.83;2.97;;;17.10;76.50;;;;;;5101438;28;20108;-89
2021/05/28 11:19:40;;;;;;;5.43;3.55;;;17.20;74.90;;;;;;5108548;28;20048;-91
2021/05/28 11:22:11;;;;;;;7.80;4.03;;;17.00;76.70;;;;;;5094663;28;20075;-90
2021/05/28 11:24:48;;;;;;;6.57;3.50;;;16.60;74.30;;;;;;5094771;28;20087;-88
2021/05/28 11:27:25;;;;;;;7.70;4.05;;;16.40;79.00;;;;;;5105525;28;20301;-89
2021/05/28 11:29:55;;;;;;;8.10;3.80;;;16.50;77.00;;;;;;5114969;28;20044;-89
2021/05/28 11:32:45;;;;;;;3.85;3.17;;;16.60;76.30;;;;;;5109991;28;20099;-88
2021/05/28 11:35:30;;;;;;;4.88;3.30;;;16.90;74.60;;;;;;5089056;28;20059;-88
2021/05/28 11:38:05;;;;;;;6.13;2.85;;;18.00;73.50;;;;;;5090166;28;20473;-91
2021/05/28 11:40:35;;;;;;;4.30;2.72;;;19.40;68.80;;;;;;5077236;28;20048;-91
2021/05/28 11:43:15;;;;;;;4.30;2.67;;;20.70;62.30;;;;;;5092155;28;20446;-89
2021/05/28 11:45:46;;;;;;;3.92;2.15;;;20.90;58.90;;;;;;5085996;28;20123;-88
2021/05/28 11:48:22;;;;;;;8.75;2.70;;;20.50;58.60;;;;;;5075506;28;20044;-89
2021/05/28 11:50:55;;;;;;;3.75;2.55;;;20.20;58.90;;;;;;5087960;28;20036;-90
2021/05/28 11:53:23;;;;;;;6.05;2.38;;;20.10;55.60;;;;;;5076005;28;20154;-89
2021/05/28 11:55:54;;;;;;;2.17;1.63;;;20.40;55.90;;;;;;5075611;28;20420;-91
2021/05/28 11:58:23;;;;;;;4.05;2.30;;;20.20;57.80;;;;;;5075856;28;20076;-92
2021/05/28 12:00:52;;;;;;;3.70;1.63;;;20.20;56.10;;;;;;5098625;28;20374;-90
2021/05/28 12:03:20;;;;;;;4.63;1.55;;;20.20;56.10;;;;;;5098538;28;20382;-89
2021/05/28 12:05:55;;;;;;;2.97;2.08;;;19.60;57.60;;;;;;5100822;28;20040;-90
2021/05/28 12:08:25;;;;;;;3.08;1.83;;;18.90;58.20;;;;;;5080523;28;20133;-89
2021/05/28 12:11:06;;;;;;;3.55;1.88;;;18.90;59.00;;;;;;5070917;28;20131;-89
2021/05/28 12:13:36;;;;;;;3.42;1.98;;;18.80;60.20;;;;;;5094116;28;20160;-88
2021/05/28 12:16:05;;;;;;;1.75;1.60;;;19.50;61.90;;;;;;5092261;28;20048;-90
2021/05/28 12:18:45;;;;;;;4.43;1.80;;;21.20;60.30;;;;;;5093465;28;20048;-87
2021/05/28 12:21:20;;;;;;;3.92;1.73;;;23.50;50.80;;;;;;5093448;28;20048;-88
2021/05/28 12:23:56;;;;;;;2.67;1.23;;;25.10;48.20;;;;;;5093708;28;20066;-90
2021/05/28 12:26:29;;;;;;;2.50;1.58;;;25.70;48.00;;;;;;5092074;28;20127;-89
2021/05/28 12:29:02;;;;;;;3.75;2.10;;;26.50;41.80;;;;;;5066442;28;20067;-89
2021/05/28 12:31:39;;;;;;;5.00;2.05;;;26.90;41.40;;;;;;5092427;28;20131;-90
2021/05/28 12:34:13;;;;;;;2.72;1.55;;;25.50;42.50;;;;;;5092648;28;20058;-89
2021/05/28 12:36:41;;;;;;;2.45;1.30;;;25.70;42.30;;;;;;5090967;28;20123;-88
2021/05/28 12:39:13;;;;;;;2.80;1.40;;;26.30;41.00;;;;;;5074718;28;20111;-91
2021/05/28 12:41:43;;;;;;;3.15;1.40;;;27.00;41.00;;;;;;5091374;28;20063;-90
2021/05/28 12:44:21;;;;;;;2.22;1.67;;;27.90;36.20;;;;;;5095548;28;20433;-91
2021/05/28 12:46:59;;;;;;;4.25;2.13;;;27.90;38.10;;;;;;5067874;28;20044;-89
2021/05/28 12:49:31;;;;;;;3.05;1.92;;;27.10;39.80;;;;;;5086798;28;20044;-88
2021/05/28 12:52:01;;;;;;;2.28;1.90;;;26.20;41.00;;;;;;5086649;28;20128;-88
2021/05/28 12:54:30;;;;;;;4.65;2.00;;;24.80;42.60;;;;;;5074475;28;20452;-89
2021/05/28 12:57:07;;;;;;;2.40;2.20;;;23.10;45.40;;;;;;5064943;28;20036;-89
2021/05/28 12:59:37;;;;;;;3.80;2.03;;;21.60;48.50;;;;;;5091024;28;20135;-87
2021/05/28 13:02:20;;;;;;;5.53;2.30;;;20.50;51.70;;;;;;5096372;28;20051;-89
2021/05/28 13:04:53;;;;;;;3.28;2.20;;;19.90;53.10;;;;;;5088009;28;20056;-90
2021/05/28 13:07:38;;;;;;;;;;;19.40;55.30;;;;;;5074916;28;20131;-91
2021/05/28 13:10:21;;;;;;;3.65;2.90;;;19.00;55.70;;;;;;5070357;28;19967;-89
2021/05/28 13:12:48;;;;;;;2.80;2.10;;;19.60;54.90;;;;;;5091647;28;20071;-91
2021/05/28 13:15:23;;;;;;;3.92;1.92;;;21.40;53.30;;;;;;5090389;28;20043;-92
2021/05/28 13:18:01;;;;;;;3.00;1.98;;;23.20;51.20;;;;;;5092044;28;20059;-93
2021/05/28 13:20:29;;;;;;;7.03;2.53;;;24.50;44.60;;;;;;5092883;28;20068;-91
2021/05/28 13:22:59;;;;;;;2.65;2.13;;;24.30;42.40;;;;;;5086554;28;20083;-91
2021/05/28 13:25:42;;;;;;;4.55;2.50;;;24.10;43.50;;;;;;5088714;28;20068;-93
2021/05/28 13:28:14;;;;;;;3.47;2.20;;;23.70;45.10;;;;;;5086480;28;20092;-92
2021/05/28 13:31:05;;;;;;;4.60;2.37;;;24.80;44.00;;;;;;5078995;28;20058;-91
2021/05/28 13:33:38;;;;;;;2.53;1.90;;;25.70;42.20;;;;;;5075944;28;20572;-92
2021/05/28 13:36:21;;;;;;;2.70;1.80;;;26.50;41.10;;;;;;5100675;28;20056;-92
2021/05/28 13:38:59;;;;;;;5.30;2.70;;;26.40;38.70;;;;;;5081316;28;20048;-92